sensor_id;sensor_type;location;lat;lon;timestamp;temperature;humidity
13928;DHT22;7036;50.834;4.718;2022-12-29T00:02:03;19.80;56.40
13928;DHT22;7036;50.834;4.718;2022-12-29T00:04:31;19.80;56.40
13928;DHT22;7036;50.834;4.718;2022-12-29T00:06:58;19.70;56.30
13928;DHT22;7036;50.834;4.718;2022-12-29T00:09:26;19.70;56.40
13928;DHT22;7036;50.834;4.718;2022-12-29T00:11:54;19.70;56.40
13928;DHT22;7036;50.834;4.718;2022-12-29T00:14:22;19.70;56.40
13928;DHT22;7036;50.834;4.718;2022-12-29T00:17:08;19.70;56.30
13928;DHT22;7036;50.834;4.718;2022-12-29T00:19:35;19.70;56.30
13928;DHT22;7036;50.834;4.718;2022-12-29T00:22:20;19.70;56.40
13928;DHT22;7036;50.834;4.718;2022-12-29T00:25:07;19.70;56.30
13928;DHT22;7036;50.834;4.718;2022-12-29T00:27:33;19.70;56.40
13928;DHT22;7036;50.834;4.718;2022-12-29T00:30:19;19.60;56.20
13928;DHT22;7036;50.834;4.718;2022-12-29T00:35:56;19.60;56.50
13928;DHT22;7036;50.834;4.718;2022-12-29T00:38:22;19.60;56.30
13928;DHT22;7036;50.834;4.718;2022-12-29T00:41:07;19.60;56.20
13928;DHT22;7036;50.834;4.718;2022-12-29T00:43:53;19.60;56.30
13928;DHT22;7036;50.834;4.718;2022-12-29T00:46:35;19.60;56.20
13928;DHT22;7036;50.834;4.718;2022-12-29T00:49:00;19.60;56.20
13928;DHT22;7036;50.834;4.718;2022-12-29T00:51:45;19.60;56.10
13928;DHT22;7036;50.834;4.718;2022-12-29T00:54:14;19.60;56.20
13928;DHT22;7036;50.834;4.718;2022-12-29T00:56:40;19.60;56.10
13928;DHT22;7036;50.834;4.718;2022-12-29T00:59:08;19.60;56.90
13928;DHT22;7036;50.834;4.718;2022-12-29T01:01:36;19.50;56.20
13928;DHT22;7036;50.834;4.718;2022-12-29T01:04:04;19.50;56.20
13928;DHT22;7036;50.834;4.718;2022-12-29T01:06:31;19.50;56.00
13928;DHT22;7036;50.834;4.718;2022-12-29T01:08:58;19.50;55.40
13928;DHT22;7036;50.834;4.718;2022-12-29T01:11:43;19.50;56.10
13928;DHT22;7036;50.834;4.718;2022-12-29T01:14:11;19.50;56.20
13928;DHT22;7036;50.834;4.718;2022-12-29T01:16:39;19.50;56.20
13928;DHT22;7036;50.834;4.718;2022-12-29T01:19:06;19.50;56.00
13928;DHT22;7036;50.834;4.718;2022-12-29T01:21:33;19.50;56.00
13928;DHT22;7036;50.834;4.718;2022-12-29T01:24:01;19.50;56.10
13928;DHT22;7036;50.834;4.718;2022-12-29T01:26:29;19.50;56.30
13928;DHT22;7036;50.834;4.718;2022-12-29T01:28:57;19.50;56.00
13928;DHT22;7036;50.834;4.718;2022-12-29T01:31:24;19.50;55.30
13928;DHT22;7036;50.834;4.718;2022-12-29T01:33:52;19.50;56.20
13928;DHT22;7036;50.834;4.718;2022-12-29T01:36:20;19.40;55.80
13928;DHT22;7036;50.834;4.718;2022-12-29T01:38:48;19.40;56.10
13928;DHT22;7036;50.834;4.718;2022-12-29T01:41:16;19.40;56.80
13928;DHT22;7036;50.834;4.718;2022-12-29T01:43:54;19.40;56.10
13928;DHT22;7036;50.834;4.718;2022-12-29T01:46:26;19.40;56.00
13928;DHT22;7036;50.834;4.718;2022-12-29T01:51:53;19.40;56.10
13928;DHT22;7036;50.834;4.718;2022-12-29T01:54:28;19.40;56.10
13928;DHT22;7036;50.834;4.718;2022-12-29T01:56:46;19.40;56.10
13928;DHT22;7036;50.834;4.718;2022-12-29T01:59:15;19.40;56.10
13928;DHT22;7036;50.834;4.718;2022-12-29T02:01:41;19.40;56.90
13928;DHT22;7036;50.834;4.718;2022-12-29T02:04:09;19.40;56.20
13928;DHT22;7036;50.834;4.718;2022-12-29T02:06:41;19.40;56.70
13928;DHT22;7036;50.834;4.718;2022-12-29T02:09:09;19.40;56.20
13928;DHT22;7036;50.834;4.718;2022-12-29T02:11:36;19.40;56.10
13928;DHT22;7036;50.834;4.718;2022-12-29T02:14:10;19.30;56.90
13928;DHT22;7036;50.834;4.718;2022-12-29T02:16:56;19.40;56.10
13928;DHT22;7036;50.834;4.718;2022-12-29T02:27:40;19.30;56.10
13928;DHT22;7036;50.834;4.718;2022-12-29T02:30:25;19.30;56.10
13928;DHT22;7036;50.834;4.718;2022-12-29T02:33:04;19.30;56.10
13928;DHT22;7036;50.834;4.718;2022-12-29T02:35:50;19.30;56.10
13928;DHT22;7036;50.834;4.718;2022-12-29T02:38:25;19.30;56.20
13928;DHT22;7036;50.834;4.718;2022-12-29T02:41:08;19.30;56.20
13928;DHT22;7036;50.834;4.718;2022-12-29T02:43:56;19.30;56.10
13928;DHT22;7036;50.834;4.718;2022-12-29T02:48:55;19.30;56.30
13928;DHT22;7036;50.834;4.718;2022-12-29T02:51:25;19.30;56.10
13928;DHT22;7036;50.834;4.718;2022-12-29T02:53:50;19.30;56.10
13928;DHT22;7036;50.834;4.718;2022-12-29T02:56:35;19.20;56.10
13928;DHT22;7036;50.834;4.718;2022-12-29T02:59:02;19.20;56.10
13928;DHT22;7036;50.834;4.718;2022-12-29T03:01:50;19.20;56.20
13928;DHT22;7036;50.834;4.718;2022-12-29T03:04:25;19.20;56.20
13928;DHT22;7036;50.834;4.718;2022-12-29T03:09:43;19.20;56.20
13928;DHT22;7036;50.834;4.718;2022-12-29T03:12:11;19.20;56.20
13928;DHT22;7036;50.834;4.718;2022-12-29T03:15:04;19.20;56.20
13928;DHT22;7036;50.834;4.718;2022-12-29T03:18:04;19.20;56.20
13928;DHT22;7036;50.834;4.718;2022-12-29T03:20:26;19.20;56.30
13928;DHT22;7036;50.834;4.718;2022-12-29T03:22:53;19.20;56.30
13928;DHT22;7036;50.834;4.718;2022-12-29T03:25:31;19.20;56.60
13928;DHT22;7036;50.834;4.718;2022-12-29T03:28:07;19.20;56.20
13928;DHT22;7036;50.834;4.718;2022-12-29T03:30:30;19.20;56.20
13928;DHT22;7036;50.834;4.718;2022-12-29T03:33:01;19.20;56.20
13928;DHT22;7036;50.834;4.718;2022-12-29T03:35:25;19.20;56.30
13928;DHT22;7036;50.834;4.718;2022-12-29T03:37:55;19.20;56.80
13928;DHT22;7036;50.834;4.718;2022-12-29T03:40:20;19.20;56.30
13928;DHT22;7036;50.834;4.718;2022-12-29T03:42:47;19.20;56.20
13928;DHT22;7036;50.834;4.718;2022-12-29T03:45:14;19.10;56.20
13928;DHT22;7036;50.834;4.718;2022-12-29T03:47:41;19.20;56.30
13928;DHT22;7036;50.834;4.718;2022-12-29T03:50:11;19.10;56.20
13928;DHT22;7036;50.834;4.718;2022-12-29T03:52:36;19.10;56.20
13928;DHT22;7036;50.834;4.718;2022-12-29T03:55:03;19.10;56.20
13928;DHT22;7036;50.834;4.718;2022-12-29T03:57:30;19.10;56.20
13928;DHT22;7036;50.834;4.718;2022-12-29T03:59:58;19.10;56.40
13928;DHT22;7036;50.834;4.718;2022-12-29T04:02:26;19.10;56.30
13928;DHT22;7036;50.834;4.718;2022-12-29T04:04:53;19.10;56.20
13928;DHT22;7036;50.834;4.718;2022-12-29T04:07:21;19.10;56.20
13928;DHT22;7036;50.834;4.718;2022-12-29T04:09:48;19.10;56.20
13928;DHT22;7036;50.834;4.718;2022-12-29T04:12:15;19.10;56.20
13928;DHT22;7036;50.834;4.718;2022-12-29T04:14:42;19.10;56.20
13928;DHT22;7036;50.834;4.718;2022-12-29T04:17:10;19.10;56.20
13928;DHT22;7036;50.834;4.718;2022-12-29T04:19:37;19.10;56.10
13928;DHT22;7036;50.834;4.718;2022-12-29T04:22:05;19.10;56.30
13928;DHT22;7036;50.834;4.718;2022-12-29T04:24:32;19.00;56.10
13928;DHT22;7036;50.834;4.718;2022-12-29T04:27:00;19.00;56.20
13928;DHT22;7036;50.834;4.718;2022-12-29T04:29:27;19.00;56.10
13928;DHT22;7036;50.834;4.718;2022-12-29T04:31:55;19.00;56.50
13928;DHT22;7036;50.834;4.718;2022-12-29T04:34:23;19.00;56.50
13928;DHT22;7036;50.834;4.718;2022-12-29T04:36:51;19.00;56.20
13928;DHT22;7036;50.834;4.718;2022-12-29T04:39:19;19.00;55.90
13928;DHT22;7036;50.834;4.718;2022-12-29T04:41:46;19.00;56.00
13928;DHT22;7036;50.834;4.718;2022-12-29T04:44:14;19.00;56.10
13928;DHT22;7036;50.834;4.718;2022-12-29T04:46:41;19.00;56.10
13928;DHT22;7036;50.834;4.718;2022-12-29T04:49:09;19.00;56.20
13928;DHT22;7036;50.834;4.718;2022-12-29T04:51:37;19.00;56.50
13928;DHT22;7036;50.834;4.718;2022-12-29T04:54:04;19.00;56.10
13928;DHT22;7036;50.834;4.718;2022-12-29T04:56:31;19.00;56.10
13928;DHT22;7036;50.834;4.718;2022-12-29T04:58:59;19.00;56.20
13928;DHT22;7036;50.834;4.718;2022-12-29T05:01:27;19.00;56.20
13928;DHT22;7036;50.834;4.718;2022-12-29T05:03:54;19.00;56.00
13928;DHT22;7036;50.834;4.718;2022-12-29T05:06:22;19.00;56.00
13928;DHT22;7036;50.834;4.718;2022-12-29T05:08:49;19.00;56.00
13928;DHT22;7036;50.834;4.718;2022-12-29T05:11:17;19.00;56.20
13928;DHT22;7036;50.834;4.718;2022-12-29T05:13:47;19.00;56.00
13928;DHT22;7036;50.834;4.718;2022-12-29T05:16:13;19.00;56.10
13928;DHT22;7036;50.834;4.718;2022-12-29T05:18:41;18.90;56.00
13928;DHT22;7036;50.834;4.718;2022-12-29T05:21:08;18.90;56.00
13928;DHT22;7036;50.834;4.718;2022-12-29T05:23:35;18.90;56.00
13928;DHT22;7036;50.834;4.718;2022-12-29T05:26:02;19.00;56.00
13928;DHT22;7036;50.834;4.718;2022-12-29T05:28:30;18.90;56.00
13928;DHT22;7036;50.834;4.718;2022-12-29T05:30:58;18.90;56.10
13928;DHT22;7036;50.834;4.718;2022-12-29T05:33:26;18.90;55.70
13928;DHT22;7036;50.834;4.718;2022-12-29T05:35:53;18.90;56.00
13928;DHT22;7036;50.834;4.718;2022-12-29T05:38:20;18.90;56.00
13928;DHT22;7036;50.834;4.718;2022-12-29T05:40:47;18.90;55.90
13928;DHT22;7036;50.834;4.718;2022-12-29T05:43:14;18.90;55.90
13928;DHT22;7036;50.834;4.718;2022-12-29T05:45:42;18.90;56.00
13928;DHT22;7036;50.834;4.718;2022-12-29T05:48:09;18.90;55.90
13928;DHT22;7036;50.834;4.718;2022-12-29T05:50:36;18.90;56.00
13928;DHT22;7036;50.834;4.718;2022-12-29T05:53:03;18.90;56.00
13928;DHT22;7036;50.834;4.718;2022-12-29T05:55:31;18.80;56.00
13928;DHT22;7036;50.834;4.718;2022-12-29T05:57:58;18.90;56.00
13928;DHT22;7036;50.834;4.718;2022-12-29T06:00:27;18.90;55.90
13928;DHT22;7036;50.834;4.718;2022-12-29T06:02:53;18.80;55.90
13928;DHT22;7036;50.834;4.718;2022-12-29T06:05:20;18.80;56.00
13928;DHT22;7036;50.834;4.718;2022-12-29T06:07:48;18.90;55.30
13928;DHT22;7036;50.834;4.718;2022-12-29T06:10:16;18.80;55.80
13928;DHT22;7036;50.834;4.718;2022-12-29T06:12:43;18.90;55.80
13928;DHT22;7036;50.834;4.718;2022-12-29T06:15:10;18.90;55.60
13928;DHT22;7036;50.834;4.718;2022-12-29T06:17:37;19.00;55.50
13928;DHT22;7036;50.834;4.718;2022-12-29T06:20:06;19.00;55.40
13928;DHT22;7036;50.834;4.718;2022-12-29T06:22:33;19.10;55.40
13928;DHT22;7036;50.834;4.718;2022-12-29T06:25:00;19.20;55.30
13928;DHT22;7036;50.834;4.718;2022-12-29T06:27:27;19.20;55.30
13928;DHT22;7036;50.834;4.718;2022-12-29T06:29:55;19.20;55.20
13928;DHT22;7036;50.834;4.718;2022-12-29T06:32:22;19.20;55.00
13928;DHT22;7036;50.834;4.718;2022-12-29T06:34:49;19.30;55.00
13928;DHT22;7036;50.834;4.718;2022-12-29T06:37:17;19.30;55.10
13928;DHT22;7036;50.834;4.718;2022-12-29T06:39:44;19.30;55.00
13928;DHT22;7036;50.834;4.718;2022-12-29T06:42:13;19.30;55.00
13928;DHT22;7036;50.834;4.718;2022-12-29T06:44:40;19.30;54.90
13928;DHT22;7036;50.834;4.718;2022-12-29T06:47:07;19.30;54.90
13928;DHT22;7036;50.834;4.718;2022-12-29T06:49:34;19.30;54.80
13928;DHT22;7036;50.834;4.718;2022-12-29T06:52:02;19.30;55.30
13928;DHT22;7036;50.834;4.718;2022-12-29T06:54:30;19.30;55.10
13928;DHT22;7036;50.834;4.718;2022-12-29T06:56:57;19.30;55.30
13928;DHT22;7036;50.834;4.718;2022-12-29T06:59:24;19.30;55.30
13928;DHT22;7036;50.834;4.718;2022-12-29T07:01:52;19.40;55.30
13928;DHT22;7036;50.834;4.718;2022-12-29T07:04:19;19.40;55.20
13928;DHT22;7036;50.834;4.718;2022-12-29T07:06:46;19.40;55.30
13928;DHT22;7036;50.834;4.718;2022-12-29T07:09:14;19.40;55.40
13928;DHT22;7036;50.834;4.718;2022-12-29T07:11:41;19.40;55.60
13928;DHT22;7036;50.834;4.718;2022-12-29T07:14:10;19.40;55.50
13928;DHT22;7036;50.834;4.718;2022-12-29T07:16:36;19.40;55.50
13928;DHT22;7036;50.834;4.718;2022-12-29T07:19:04;19.40;55.50
13928;DHT22;7036;50.834;4.718;2022-12-29T07:21:31;19.40;55.30
13928;DHT22;7036;50.834;4.718;2022-12-29T07:23:58;19.40;55.30
13928;DHT22;7036;50.834;4.718;2022-12-29T07:26:26;19.40;55.30
13928;DHT22;7036;50.834;4.718;2022-12-29T07:28:54;19.40;55.60
13928;DHT22;7036;50.834;4.718;2022-12-29T07:31:22;19.40;55.50
13928;DHT22;7036;50.834;4.718;2022-12-29T07:33:48;19.40;55.50
13928;DHT22;7036;50.834;4.718;2022-12-29T07:36:16;19.40;55.60
13928;DHT22;7036;50.834;4.718;2022-12-29T07:38:43;19.40;55.40
13928;DHT22;7036;50.834;4.718;2022-12-29T07:41:10;19.40;55.40
13928;DHT22;7036;50.834;4.718;2022-12-29T07:43:38;19.40;55.30
13928;DHT22;7036;50.834;4.718;2022-12-29T07:46:05;19.40;55.30
13928;DHT22;7036;50.834;4.718;2022-12-29T07:48:33;19.40;55.30
13928;DHT22;7036;50.834;4.718;2022-12-29T07:51:00;19.40;55.40
13928;DHT22;7036;50.834;4.718;2022-12-29T07:53:27;19.40;55.30
13928;DHT22;7036;50.834;4.718;2022-12-29T07:55:55;19.40;55.40
13928;DHT22;7036;50.834;4.718;2022-12-29T07:58:23;19.40;55.60
13928;DHT22;7036;50.834;4.718;2022-12-29T08:00:56;19.40;55.40
13928;DHT22;7036;50.834;4.718;2022-12-29T08:03:20;19.40;55.30
13928;DHT22;7036;50.834;4.718;2022-12-29T08:05:47;19.40;55.40
13928;DHT22;7036;50.834;4.718;2022-12-29T08:08:14;19.50;55.50
13928;DHT22;7036;50.834;4.718;2022-12-29T08:10:41;19.50;55.50
13928;DHT22;7036;50.834;4.718;2022-12-29T08:13:09;19.50;55.60
13928;DHT22;7036;50.834;4.718;2022-12-29T08:15:37;19.50;55.60
13928;DHT22;7036;50.834;4.718;2022-12-29T08:18:03;19.50;55.70
13928;DHT22;7036;50.834;4.718;2022-12-29T08:20:30;19.50;55.70
13928;DHT22;7036;50.834;4.718;2022-12-29T08:22:57;19.50;55.80
13928;DHT22;7036;50.834;4.718;2022-12-29T08:25:25;19.50;55.70
13928;DHT22;7036;50.834;4.718;2022-12-29T08:27:52;19.50;55.10
13928;DHT22;7036;50.834;4.718;2022-12-29T08:30:20;19.40;55.10
13928;DHT22;7036;50.834;4.718;2022-12-29T08:32:47;19.40;55.40
13928;DHT22;7036;50.834;4.718;2022-12-29T08:35:14;19.30;55.50
13928;DHT22;7036;50.834;4.718;2022-12-29T08:37:42;19.30;55.80
13928;DHT22;7036;50.834;4.718;2022-12-29T08:40:10;19.30;55.80
13928;DHT22;7036;50.834;4.718;2022-12-29T08:42:37;19.30;55.60
13928;DHT22;7036;50.834;4.718;2022-12-29T08:45:04;19.30;55.60
13928;DHT22;7036;50.834;4.718;2022-12-29T08:47:33;19.30;55.40
13928;DHT22;7036;50.834;4.718;2022-12-29T08:49:59;19.30;55.10
13928;DHT22;7036;50.834;4.718;2022-12-29T08:52:26;19.40;55.10
13928;DHT22;7036;50.834;4.718;2022-12-29T08:54:54;19.40;55.00
13928;DHT22;7036;50.834;4.718;2022-12-29T08:57:22;19.40;54.90
13928;DHT22;7036;50.834;4.718;2022-12-29T08:59:49;19.40;54.80
13928;DHT22;7036;50.834;4.718;2022-12-29T09:02:16;19.40;54.80
13928;DHT22;7036;50.834;4.718;2022-12-29T09:04:43;19.40;54.80
13928;DHT22;7036;50.834;4.718;2022-12-29T09:07:10;19.40;54.70
13928;DHT22;7036;50.834;4.718;2022-12-29T09:09:38;19.40;54.80
13928;DHT22;7036;50.834;4.718;2022-12-29T09:12:05;19.40;54.80
13928;DHT22;7036;50.834;4.718;2022-12-29T09:14:33;19.40;54.90
13928;DHT22;7036;50.834;4.718;2022-12-29T09:17:00;19.40;54.80
13928;DHT22;7036;50.834;4.718;2022-12-29T09:19:45;19.40;54.80
13928;DHT22;7036;50.834;4.718;2022-12-29T09:22:12;19.50;54.80
13928;DHT22;7036;50.834;4.718;2022-12-29T09:24:40;19.50;54.80
13928;DHT22;7036;50.834;4.718;2022-12-29T09:27:08;19.60;54.90
13928;DHT22;7036;50.834;4.718;2022-12-29T09:29:35;19.50;54.90
13928;DHT22;7036;50.834;4.718;2022-12-29T09:32:03;19.60;54.80
13928;DHT22;7036;50.834;4.718;2022-12-29T09:34:31;19.60;54.80
13928;DHT22;7036;50.834;4.718;2022-12-29T09:37:02;19.60;54.70
13928;DHT22;7036;50.834;4.718;2022-12-29T09:39:28;19.60;54.60
13928;DHT22;7036;50.834;4.718;2022-12-29T09:42:06;19.70;54.80
13928;DHT22;7036;50.834;4.718;2022-12-29T09:45:00;19.70;54.80
13928;DHT22;7036;50.834;4.718;2022-12-29T09:47:23;19.70;54.90
13928;DHT22;7036;50.834;4.718;2022-12-29T09:52:30;19.80;55.00
13928;DHT22;7036;50.834;4.718;2022-12-29T09:55:01;19.80;54.90
13928;DHT22;7036;50.834;4.718;2022-12-29T09:57:29;19.80;54.80
13928;DHT22;7036;50.834;4.718;2022-12-29T10:00:05;19.80;54.80
13928;DHT22;7036;50.834;4.718;2022-12-29T10:02:46;19.80;55.50
13928;DHT22;7036;50.834;4.718;2022-12-29T10:05:16;19.80;54.60
13928;DHT22;7036;50.834;4.718;2022-12-29T10:07:49;19.80;54.60
13928;DHT22;7036;50.834;4.718;2022-12-29T10:10:28;19.90;54.80
13928;DHT22;7036;50.834;4.718;2022-12-29T10:13:18;19.90;54.70
13928;DHT22;7036;50.834;4.718;2022-12-29T10:21:01;19.90;54.60
13928;DHT22;7036;50.834;4.718;2022-12-29T10:23:32;19.90;54.50
13928;DHT22;7036;50.834;4.718;2022-12-29T10:25:56;19.90;54.60
13928;DHT22;7036;50.834;4.718;2022-12-29T10:28:23;19.90;54.50
13928;DHT22;7036;50.834;4.718;2022-12-29T10:30:50;20.00;54.60
13928;DHT22;7036;50.834;4.718;2022-12-29T10:33:24;19.90;54.40
13928;DHT22;7036;50.834;4.718;2022-12-29T10:35:47;20.00;54.40
13928;DHT22;7036;50.834;4.718;2022-12-29T10:38:40;20.00;54.40
13928;DHT22;7036;50.834;4.718;2022-12-29T10:41:13;20.00;54.40
13928;DHT22;7036;50.834;4.718;2022-12-29T10:43:48;20.00;54.30
13928;DHT22;7036;50.834;4.718;2022-12-29T10:46:24;20.00;54.30
13928;DHT22;7036;50.834;4.718;2022-12-29T10:48:50;20.00;54.20
13928;DHT22;7036;50.834;4.718;2022-12-29T10:51:21;20.00;54.10
13928;DHT22;7036;50.834;4.718;2022-12-29T10:53:49;20.10;54.30
13928;DHT22;7036;50.834;4.718;2022-12-29T10:56:17;20.10;54.90
13928;DHT22;7036;50.834;4.718;2022-12-29T10:58:42;20.10;54.30
13928;DHT22;7036;50.834;4.718;2022-12-29T11:01:10;20.10;54.20
13928;DHT22;7036;50.834;4.718;2022-12-29T11:11:26;20.10;54.10
13928;DHT22;7036;50.834;4.718;2022-12-29T11:13:58;20.10;54.00
13928;DHT22;7036;50.834;4.718;2022-12-29T11:16:31;20.10;54.00
13928;DHT22;7036;50.834;4.718;2022-12-29T11:18:57;20.10;53.80
13928;DHT22;7036;50.834;4.718;2022-12-29T11:21:30;20.10;54.40
13928;DHT22;7036;50.834;4.718;2022-12-29T11:24:00;20.10;53.80
13928;DHT22;7036;50.834;4.718;2022-12-29T11:26:23;20.10;53.80
13928;DHT22;7036;50.834;4.718;2022-12-29T11:31:52;20.10;53.80
13928;DHT22;7036;50.834;4.718;2022-12-29T11:34:22;20.20;53.90
13928;DHT22;7036;50.834;4.718;2022-12-29T11:36:48;20.20;54.00
13928;DHT22;7036;50.834;4.718;2022-12-29T11:39:39;20.20;54.10
13928;DHT22;7036;50.834;4.718;2022-12-29T11:42:05;20.20;54.00
13928;DHT22;7036;50.834;4.718;2022-12-29T11:44:36;20.20;54.00
13928;DHT22;7036;50.834;4.718;2022-12-29T11:47:00;20.20;53.90
13928;DHT22;7036;50.834;4.718;2022-12-29T11:49:28;20.20;54.50
13928;DHT22;7036;50.834;4.718;2022-12-29T11:51:55;20.20;53.70
13928;DHT22;7036;50.834;4.718;2022-12-29T11:54:23;20.20;53.70
13928;DHT22;7036;50.834;4.718;2022-12-29T11:56:49;20.20;53.60
13928;DHT22;7036;50.834;4.718;2022-12-29T12:01:56;20.20;53.30
13928;DHT22;7036;50.834;4.718;2022-12-29T12:04:24;20.20;53.30
13928;DHT22;7036;50.834;4.718;2022-12-29T12:09:31;20.20;53.20
13928;DHT22;7036;50.834;4.718;2022-12-29T12:11:56;20.30;53.30
13928;DHT22;7036;50.834;4.718;2022-12-29T12:14:28;20.30;53.20
13928;DHT22;7036;50.834;4.718;2022-12-29T12:16:54;20.30;53.10
13928;DHT22;7036;50.834;4.718;2022-12-29T12:19:47;20.30;53.40
13928;DHT22;7036;50.834;4.718;2022-12-29T12:22:27;20.30;53.30
13928;DHT22;7036;50.834;4.718;2022-12-29T12:24:53;20.30;53.00
13928;DHT22;7036;50.834;4.718;2022-12-29T12:27:37;20.30;52.70
13928;DHT22;7036;50.834;4.718;2022-12-29T12:30:05;20.30;52.70
13928;DHT22;7036;50.834;4.718;2022-12-29T12:33:15;20.20;53.00
13928;DHT22;7036;50.834;4.718;2022-12-29T12:34:57;20.30;53.20
13928;DHT22;7036;50.834;4.718;2022-12-29T12:37:34;20.30;53.60
13928;DHT22;7036;50.834;4.718;2022-12-29T12:40:21;20.30;53.40
13928;DHT22;7036;50.834;4.718;2022-12-29T12:45:44;20.50;54.30
13928;DHT22;7036;50.834;4.718;2022-12-29T12:58:59;20.60;54.50
13928;DHT22;7036;50.834;4.718;2022-12-29T13:07:18;20.60;54.50
13928;DHT22;7036;50.834;4.718;2022-12-29T13:09:47;20.60;54.40
13928;DHT22;7036;50.834;4.718;2022-12-29T13:12:32;20.60;54.70
13928;DHT22;7036;50.834;4.718;2022-12-29T13:17:52;20.60;53.90
13928;DHT22;7036;50.834;4.718;2022-12-29T13:26:45;20.50;53.80
13928;DHT22;7036;50.834;4.718;2022-12-29T13:28:22;20.50;53.80
13928;DHT22;7036;50.834;4.718;2022-12-29T13:39:06;20.50;53.60
13928;DHT22;7036;50.834;4.718;2022-12-29T13:41:43;20.50;53.20
13928;DHT22;7036;50.834;4.718;2022-12-29T13:44:09;20.50;53.60
13928;DHT22;7036;50.834;4.718;2022-12-29T13:46:37;20.50;53.60
13928;DHT22;7036;50.834;4.718;2022-12-29T13:49:05;20.50;53.60
13928;DHT22;7036;50.834;4.718;2022-12-29T13:51:29;20.50;53.60
13928;DHT22;7036;50.834;4.718;2022-12-29T13:56:52;20.50;53.60
13928;DHT22;7036;50.834;4.718;2022-12-29T13:59:23;20.50;53.60
13928;DHT22;7036;50.834;4.718;2022-12-29T14:01:55;20.50;53.50
13928;DHT22;7036;50.834;4.718;2022-12-29T14:04:24;20.40;53.30
13928;DHT22;7036;50.834;4.718;2022-12-29T14:07:11;20.40;53.20
13928;DHT22;7036;50.834;4.718;2022-12-29T14:09:48;20.40;53.20
13928;DHT22;7036;50.834;4.718;2022-12-29T14:17:36;20.40;52.80
13928;DHT22;7036;50.834;4.718;2022-12-29T14:20:04;20.40;53.10
13928;DHT22;7036;50.834;4.718;2022-12-29T14:22:31;20.40;53.30
13928;DHT22;7036;50.834;4.718;2022-12-29T14:24:59;20.40;53.10
13928;DHT22;7036;50.834;4.718;2022-12-29T14:29:55;20.40;53.30
13928;DHT22;7036;50.834;4.718;2022-12-29T14:34:59;20.40;53.60
13928;DHT22;7036;50.834;4.718;2022-12-29T14:37:29;20.50;53.80
13928;DHT22;7036;50.834;4.718;2022-12-29T14:42:46;20.50;53.80
13928;DHT22;7036;50.834;4.718;2022-12-29T14:47:46;20.50;53.90
13928;DHT22;7036;50.834;4.718;2022-12-29T14:52:57;20.50;54.00
13928;DHT22;7036;50.834;4.718;2022-12-29T14:55:42;20.50;54.80
13928;DHT22;7036;50.834;4.718;2022-12-29T14:58:20;20.40;54.20
13928;DHT22;7036;50.834;4.718;2022-12-29T15:00:47;20.50;54.20
13928;DHT22;7036;50.834;4.718;2022-12-29T15:08:31;20.50;54.40
13928;DHT22;7036;50.834;4.718;2022-12-29T15:11:02;20.50;54.20
13928;DHT22;7036;50.834;4.718;2022-12-29T15:13:35;20.50;54.20
13928;DHT22;7036;50.834;4.718;2022-12-29T15:16:00;20.50;54.60
13928;DHT22;7036;50.834;4.718;2022-12-29T15:18:30;20.50;54.50
13928;DHT22;7036;50.834;4.718;2022-12-29T15:21:01;20.50;54.40
13928;DHT22;7036;50.834;4.718;2022-12-29T15:23:27;20.40;54.30
13928;DHT22;7036;50.834;4.718;2022-12-29T15:25:58;20.50;54.40
13928;DHT22;7036;50.834;4.718;2022-12-29T15:28:25;20.40;54.20
13928;DHT22;7036;50.834;4.718;2022-12-29T15:30:56;20.40;54.20
13928;DHT22;7036;50.834;4.718;2022-12-29T15:33:22;20.50;54.30
13928;DHT22;7036;50.834;4.718;2022-12-29T15:35:52;20.40;54.20
13928;DHT22;7036;50.834;4.718;2022-12-29T15:38:25;20.40;54.20
13928;DHT22;7036;50.834;4.718;2022-12-29T15:40:54;20.40;54.20
13928;DHT22;7036;50.834;4.718;2022-12-29T15:43:35;20.40;54.30
13928;DHT22;7036;50.834;4.718;2022-12-29T15:46:00;20.40;54.20
13928;DHT22;7036;50.834;4.718;2022-12-29T15:48:27;20.40;54.40
13928;DHT22;7036;50.834;4.718;2022-12-29T15:50:55;20.40;54.60
13928;DHT22;7036;50.834;4.718;2022-12-29T15:53:30;20.50;54.70
13928;DHT22;7036;50.834;4.718;2022-12-29T15:55:57;20.50;54.90
13928;DHT22;7036;50.834;4.718;2022-12-29T15:58:21;20.40;54.70
13928;DHT22;7036;50.834;4.718;2022-12-29T16:00:51;20.50;54.70
13928;DHT22;7036;50.834;4.718;2022-12-29T16:03:17;20.50;55.30
13928;DHT22;7036;50.834;4.718;2022-12-29T16:05:49;20.50;54.70
13928;DHT22;7036;50.834;4.718;2022-12-29T16:08:29;20.50;54.80
13928;DHT22;7036;50.834;4.718;2022-12-29T16:10:54;20.50;54.70
13928;DHT22;7036;50.834;4.718;2022-12-29T16:13:29;20.50;54.60
13928;DHT22;7036;50.834;4.718;2022-12-29T16:16:39;20.50;54.90
13928;DHT22;7036;50.834;4.718;2022-12-29T16:18:25;20.50;54.80
13928;DHT22;7036;50.834;4.718;2022-12-29T16:20:51;20.50;54.90
13928;DHT22;7036;50.834;4.718;2022-12-29T16:23:20;20.40;54.90
13928;DHT22;7036;50.834;4.718;2022-12-29T16:25:47;20.50;55.40
13928;DHT22;7036;50.834;4.718;2022-12-29T16:28:16;20.50;55.30
13928;DHT22;7036;50.834;4.718;2022-12-29T16:30:42;20.50;55.40
13928;DHT22;7036;50.834;4.718;2022-12-29T16:33:29;20.50;55.50
13928;DHT22;7036;50.834;4.718;2022-12-29T16:38:17;20.50;55.60
13928;DHT22;7036;50.834;4.718;2022-12-29T16:40:56;20.50;55.50
13928;DHT22;7036;50.834;4.718;2022-12-29T16:43:26;20.50;55.40
13928;DHT22;7036;50.834;4.718;2022-12-29T16:48:21;20.50;55.70
13928;DHT22;7036;50.834;4.718;2022-12-29T16:50:48;20.50;55.80
13928;DHT22;7036;50.834;4.718;2022-12-29T16:53:27;20.50;55.70
13928;DHT22;7036;50.834;4.718;2022-12-29T16:55:47;20.50;55.60
13928;DHT22;7036;50.834;4.718;2022-12-29T16:58:16;20.60;55.80
13928;DHT22;7036;50.834;4.718;2022-12-29T17:00:41;20.60;56.20
13928;DHT22;7036;50.834;4.718;2022-12-29T17:03:08;20.50;56.20
13928;DHT22;7036;50.834;4.718;2022-12-29T17:05:36;20.60;56.20
13928;DHT22;7036;50.834;4.718;2022-12-29T17:08:14;20.50;55.70
13928;DHT22;7036;50.834;4.718;2022-12-29T17:10:32;20.50;55.50
13928;DHT22;7036;50.834;4.718;2022-12-29T17:13:16;20.50;55.40
13928;DHT22;7036;50.834;4.718;2022-12-29T17:15:43;20.50;55.40
13928;DHT22;7036;50.834;4.718;2022-12-29T17:18:10;20.50;55.30
13928;DHT22;7036;50.834;4.718;2022-12-29T17:20:38;20.50;55.40
13928;DHT22;7036;50.834;4.718;2022-12-29T17:23:11;20.50;55.70
13928;DHT22;7036;50.834;4.718;2022-12-29T17:25:35;20.50;55.60
13928;DHT22;7036;50.834;4.718;2022-12-29T17:28:02;20.60;55.50
13928;DHT22;7036;50.834;4.718;2022-12-29T17:30:28;20.60;55.40
13928;DHT22;7036;50.834;4.718;2022-12-29T17:33:04;20.60;55.50
13928;DHT22;7036;50.834;4.718;2022-12-29T17:35:23;20.60;55.70
13928;DHT22;7036;50.834;4.718;2022-12-29T17:37:50;20.60;56.10
13928;DHT22;7036;50.834;4.718;2022-12-29T17:40:20;20.60;55.80
13928;DHT22;7036;50.834;4.718;2022-12-29T17:42:45;20.60;55.80
13928;DHT22;7036;50.834;4.718;2022-12-29T17:45:16;20.60;55.70
13928;DHT22;7036;50.834;4.718;2022-12-29T17:47:41;20.60;55.80
13928;DHT22;7036;50.834;4.718;2022-12-29T17:50:13;20.60;55.80
13928;DHT22;7036;50.834;4.718;2022-12-29T17:52:39;20.60;55.60